RYR2FU EGBB-LIRF
Flight info
| Callsign | RYR2FU |
|---|---|
| Flight time | N/A |
| Altitude | 37000 |
| Route | ADMEX Y321 EMKUK UL612 OGULO DCT OKASI DCT OKEKO DCT MOU DCT MADIV DCT MOKIP DCT TUFTA DCT KOGAS DCT MEDAM DCT NITAM DCT MOGBO DCT ELB DCT ELKAP |
| Aircraft | B38M/M-SDE1FGHILORVWXY/HB1 |
Departure
| Time | 2026-05-05 16:44 |
|---|---|
| Airport | Birmingham Airport (EGBB) |
Arrival
| Time | N/A |
|---|---|
| Airport | Rome–Fiumicino Leonardo da Vinci International Airport (LIRF) |
| Time | Latitude | Longitude | Altitude | Speed | Heading |
|---|---|---|---|---|---|
| 2026-05-05 16:13 | 52.45351 | -1.73704 | 326 ft | 0 kts | 146° |
| 2026-05-05 16:34 | 52.45357 | -1.73710 | 326 ft | 4 kts | 146° |
| 2026-05-05 16:34 | 52.45365 | -1.73720 | 326 ft | 0 kts | 148° |
| 2026-05-05 16:34 | 52.45377 | -1.73731 | 326 ft | 4 kts | 156° |
| 2026-05-05 16:35 | 52.45402 | -1.73739 | 326 ft | 4 kts | 191° |
| 2026-05-05 16:35 | 52.45418 | -1.73724 | 326 ft | 2 kts | 236° |
| 2026-05-05 16:35 | 52.45409 | -1.73745 | 326 ft | 0 kts | 236° |
| 2026-05-05 16:38 | 52.45408 | -1.73748 | 326 ft | 1 kts | 236° |
| 2026-05-05 16:38 | 52.45391 | -1.73789 | 326 ft | 9 kts | 236° |
| 2026-05-05 16:38 | 52.45339 | -1.73915 | 326 ft | 15 kts | 236° |
| 2026-05-05 16:39 | 52.45278 | -1.73962 | 326 ft | 10 kts | 163° |
| 2026-05-05 16:39 | 52.45209 | -1.73897 | 326 ft | 13 kts | 145° |
| 2026-05-05 16:39 | 52.45123 | -1.73801 | 326 ft | 17 kts | 146° |
| 2026-05-05 16:39 | 52.45009 | -1.73716 | 326 ft | 20 kts | 147° |
| 2026-05-05 16:40 | 52.44896 | -1.73638 | 326 ft | 16 kts | 202° |
| 2026-05-05 16:40 | 52.44786 | -1.73707 | 326 ft | 17 kts | 199° |
| 2026-05-05 16:40 | 52.44715 | -1.73721 | 326 ft | 9 kts | 165° |
| 2026-05-05 16:40 | 52.44666 | -1.73655 | 326 ft | 8 kts | 140° |
| 2026-05-05 16:41 | 52.44595 | -1.73596 | 326 ft | 17 kts | 152° |
| 2026-05-05 16:41 | 52.44489 | -1.73484 | 326 ft | 13 kts | 147° |
| 2026-05-05 16:41 | 52.44406 | -1.73413 | 326 ft | 12 kts | 180° |
| 2026-05-05 16:41 | 52.44366 | -1.73450 | 326 ft | 0 kts | 229° |
| 2026-05-05 16:42 | 52.44363 | -1.73457 | 326 ft | 3 kts | 230° |
| 2026-05-05 16:43 | 52.44324 | -1.73555 | 328 ft | 16 kts | 249° |
| 2026-05-05 16:43 | 52.44352 | -1.73653 | 327 ft | 9 kts | 326° |
| 2026-05-05 16:43 | 52.44366 | -1.73668 | 327 ft | 0 kts | 328° |
| 2026-05-05 16:43 | 52.44393 | -1.73697 | 327 ft | 27 kts | 326° |
| 2026-05-05 16:44 | 52.44794 | -1.74142 | 328 ft | 110 kts | 326° |
| 2026-05-05 16:44 | 52.45609 | -1.75035 | 360 ft | 172 kts | 327° |
| 2026-05-05 16:44 | 52.46721 | -1.76152 | 933 ft | 195 kts | 328° |
| 2026-05-05 16:44 | 52.47908 | -1.77283 | 1898 ft | 202 kts | 328° |
| 2026-05-05 16:45 | 52.49122 | -1.78618 | 2599 ft | 217 kts | 323° |
| 2026-05-05 16:45 | 52.50430 | -1.79993 | 3154 ft | 240 kts | 333° |
| 2026-05-05 16:45 | 52.52108 | -1.80586 | 3803 ft | 257 kts | 4° |
| 2026-05-05 16:45 | 52.53833 | -1.79558 | 4513 ft | 268 kts | 39° |